Ellsberry, Ohio
Current Conditions -  °F | °C
As of 9:55 PM on Sunday 23 Nov 2014 (Local Time) from KFGX Reporting Station
Overcast Overcast  
Wind Chill: 56°   Ceiling: 4000
Heat Index: 56°   Visibility: 10mi
Dew Point: 53°   Wind: 17mph
Humidity: 88%   Direction: 160°SSE
Pressure: 29.4"   Gusts: NA
Location:  38.6956°N, 83.7386°W
Report Text: KFGX 240255Z AUTO 16015KT 10SM BKN040 BKN055 OVC090 14/12 A2940 RMK AO2 T01360117
Loading
Personal Weather Stations






























Interactive Weather Map New forecast layout! Learn more

10-Day Weather Forecast

Advertisements
Track Severe Weather on mobile